Time;durP1;ratioP1;P1;durP2;ratioP2;P2;SDS_P1;SDS_P2;PMS_P1;PMS_P2;Temp;Humidity;BMP_temperature;BMP_pressure;BME280_temperature;BME280_humidity;BME280_pressure;Samples;Min_cycle;Max_cycle;Signal;HPM_P1;HPM_P2
2022/10/26 00:01:47;;;;;;;3.20;2.10;;;;;;;12.76;85.89;99232.20;25438;1330;3027336;-68
2022/10/26 00:04:16;;;;;;;5.30;2.20;;;;;;;13.22;83.69;99225.11;25449;1324;3051996;-64
2022/10/26 00:06:45;;;;;;;6.10;3.40;;;;;;;13.15;83.27;99225.84;25447;1322;3027653;-70
2022/10/26 00:09:15;;;;;;;4.10;2.60;;;;;;;12.97;83.82;99213.42;25442;1333;3051503;-73
2022/10/26 00:11:43;;;;;;;3.40;2.40;;;;;;;12.68;84.99;99214.85;25444;1333;3027657;-66
2022/10/26 00:14:12;;;;;;;3.80;2.40;;;;;;;12.40;86.95;99221.26;25454;1324;3051595;-70
2022/10/26 00:16:42;;;;;;;3.80;1.90;;;;;;;12.35;87.33;99215.48;25422;1332;3026802;-65
2022/10/26 00:19:12;;;;;;;4.00;1.90;;;;;;;12.70;86.84;99206.78;25445;1336;3027360;-67
2022/10/26 00:21:42;;;;;;;4.40;2.50;;;;;;;13.31;83.35;99189.66;25445;1333;3026329;-70
2022/10/26 00:24:11;;;;;;;6.50;2.50;;;;;;;13.00;84.39;99189.50;25449;1320;3049378;-67
2022/10/26 00:26:40;;;;;;;3.70;2.40;;;;;;;12.97;84.08;99181.61;25435;1330;3027046;-65
2022/10/26 00:29:10;;;;;;;4.40;2.20;;;;;;;12.75;85.24;99171.66;25447;1332;3054013;-68
2022/10/26 00:31:39;;;;;;;5.70;2.80;;;;;;;12.39;87.42;99180.60;25438;1332;3026489;-66
2022/10/26 00:34:08;;;;;;;4.30;2.30;;;;;;;12.27;88.16;99177.80;25442;1329;3027636;-73
2022/10/26 00:36:38;;;;;;;3.80;1.90;;;;;;;12.58;88.04;99168.13;25406;1334;3051915;-71
2022/10/26 00:39:09;;;;;;;6.90;2.60;;;;;;;12.80;86.16;99166.55;25432;1333;3027164;-67
2022/10/26 00:41:38;;;;;;;4.90;2.40;;;;;;;12.86;85.92;99156.27;25441;1340;3052027;-64
2022/10/26 00:44:53;;;;;;;5.30;2.60;;;;;;;12.75;86.22;99156.17;25447;1333;3026451;-70
2022/10/26 00:47:28;;;;;;;5.00;2.40;;;;;;;12.40;87.99;99153.84;25415;1340;3053010;-69
2022/10/26 00:49:58;;;;;;;4.40;1.70;;;;;;;12.18;89.25;99161.22;25453;1331;3053020;-69
2022/10/26 00:52:26;;;;;;;5.60;2.10;;;;;;;12.37;89.46;99154.05;25441;1333;3027134;-68
2022/10/26 00:54:55;;;;;;;4.60;2.20;;;;;;;12.57;87.77;99153.11;25420;1326;3026456;-66
2022/10/26 00:57:24;;;;;;;4.50;2.20;;;;;;;12.76;87.47;99142.22;25450;1337;3052250;-64
2022/10/26 00:59:53;;;;;;;3.50;2.40;;;;;;;12.59;87.31;99144.71;25434;1327;3026048;-67
2022/10/26 01:02:22;;;;;;;4.20;1.90;;;;;;;12.25;89.32;99147.08;25402;1333;3050971;-66
2022/10/26 01:04:52;;;;;;;4.50;1.60;;;;;;;12.19;89.97;99153.29;25443;1331;3026126;-70
2022/10/26 01:07:21;;;;;;;3.60;1.80;;;;;;;12.59;88.73;99136.98;25391;1333;3053082;-64
2022/10/26 01:09:50;;;;;;;3.10;1.80;;;;;;;13.11;86.01;99129.43;25392;1333;3027751;-63
2022/10/26 01:12:23;;;;;;;2.60;1.70;;;;;;;12.97;85.70;99129.58;25437;1333;3052974;-75
2022/10/26 01:14:52;;;;;;;3.60;1.50;;;;;;;12.81;85.70;99122.17;25440;1331;3026023;-65
2022/10/26 01:17:34;;;;;;;5.10;2.00;;;;;;;12.43;87.21;99124.11;25434;1332;3050814;-67
2022/10/26 01:20:13;;;;;;;2.40;1.10;;;;;;;12.22;88.71;99119.31;25418;1333;3053272;-68
2022/10/26 01:22:59;;;;;;;3.10;1.70;;;;;;;12.57;87.25;99117.45;25444;1324;3050164;-71
2022/10/26 01:25:47;;;;;;;3.70;1.80;;;;;;;12.82;84.84;99107.65;25368;1331;3069903;-72
2022/10/26 01:28:34;;;;;;;4.10;1.60;;;;;;;12.57;84.78;99107.44;25444;1325;3049500;-72
2022/10/26 01:31:03;;;;;;;3.30;1.60;;;;;;;12.26;86.05;99108.52;25428;1324;3058050;-70
2022/10/26 01:33:44;;;;;;;4.10;1.70;;;;;;;12.13;86.14;99113.13;25424;1323;3027555;-64
2022/10/26 01:36:30;;;;;;;2.00;1.20;;;;;;;11.63;88.74;99109.95;25423;1326;3051105;-66
2022/10/26 01:39:01;;;;;;;1.40;1.10;;;;;;;12.16;87.09;99100.08;25446;1323;3056647;-69
2022/10/26 01:41:36;;;;;;;2.80;1.50;;;;;;;12.47;84.61;99081.67;25447;1334;3027169;-64
2022/10/26 01:44:09;;;;;;;2.40;1.40;;;;;;;12.28;85.37;99088.50;25427;1333;3052043;-68
2022/10/26 01:46:41;;;;;;;2.80;1.60;;;;;;;12.06;86.33;99082.23;25395;1327;3026584;-66
2022/10/26 01:49:11;;;;;;;1.90;1.40;;;;;;;11.89;87.48;99090.10;25414;1327;3028429;-71
2022/10/26 01:51:42;;;;;;;2.50;1.20;;;;;;;11.73;88.38;99089.42;25390;1336;3026186;-70
2022/10/26 01:54:11;;;;;;;5.20;1.50;;;;;;;11.97;87.64;99084.41;25394;1335;3025709;-74
2022/10/26 01:56:41;;;;;;;2.20;1.30;;;;;;;12.48;85.36;99078.93;25449;1331;3027703;-65
2022/10/26 01:59:30;;;;;;;4.00;1.70;;;;;;;12.57;84.29;99070.02;25450;1332;3048007;-73
2022/10/26 02:02:47;;;;;;;2.80;1.40;;;;;;;12.34;85.08;99080.86;25436;1330;3069491;-68
2022/10/26 02:05:22;;;;;;;2.40;1.50;;;;;;;12.11;86.51;99077.31;25368;1333;3050961;-66
2022/10/26 02:08:10;;;;;;;2.40;1.20;;;;;;;11.97;87.30;99078.78;25434;1324;3056894;-68
2022/10/26 02:10:53;;;;;;;2.50;1.40;;;;;;;12.26;87.24;99072.83;25458;1334;3053797;-65
2022/10/26 02:13:43;;;;;;;2.10;1.60;;;;;;;12.35;86.15;99067.33;25407;1332;3054136;-76
2022/10/26 02:16:54;;;;;;;3.60;1.80;;;;;;;12.28;86.08;99064.27;25433;1329;3051050;-66
2022/10/26 02:19:35;;;;;;;4.90;2.20;;;;;;;12.04;87.74;99073.73;25405;1326;3053511;-71
2022/10/26 02:22:11;;;;;;;3.70;2.20;;;;;;;11.82;88.84;99076.55;25406;1333;3047674;-69
2022/10/26 02:24:40;;;;;;;3.60;1.40;;;;;;;11.63;90.69;99073.70;25386;1335;3068720;-68
2022/10/26 02:27:12;;;;;;;4.80;2.00;;;;;;;12.30;88.31;99057.94;25435;1324;3025904;-68
2022/10/26 02:29:41;;;;;;;2.50;1.70;;;;;;;12.43;86.79;99058.77;25436;1333;3026706;-71
2022/10/26 02:32:10;;;;;;;3.80;2.30;;;;;;;12.43;86.97;99058.04;25395;1327;3026936;-67
2022/10/26 02:34:40;;;;;;;5.00;2.20;;;;;;;12.29;87.40;99060.20;25446;1333;3050661;-72
2022/10/26 02:37:09;;;;;;;4.20;2.30;;;;;;;12.05;88.11;99059.80;25414;1325;3027792;-65
2022/10/26 02:39:39;;;;;;;4.50;1.60;;;;;;;11.91;89.56;99059.96;25389;1319;3027217;-60
2022/10/26 02:42:09;;;;;;;3.50;1.90;;;;;;;12.13;89.27;99054.88;25396;1337;3027308;-75
2022/10/26 02:44:42;;;;;;;4.40;1.90;;;;;;;12.62;86.95;99043.70;25414;1332;3027668;-66
2022/10/26 02:47:11;;;;;;;6.60;2.20;;;;;;;12.67;85.59;99044.13;25409;1337;3026578;-62
2022/10/26 02:49:40;;;;;;;4.30;2.20;;;;;;;12.35;87.02;99050.41;25423;1329;3026907;-68
2022/10/26 02:52:23;;;;;;;4.90;2.40;;;;;;;12.22;88.15;99046.46;25416;1333;3051141;-75
2022/10/26 02:55:01;;;;;;;3.50;1.70;;;;;;;12.04;89.31;99052.20;25411;1329;3052276;-66
2022/10/26 02:57:39;;;;;;;2.10;1.50;;;;;;;12.53;87.70;99042.70;25392;1327;3049431;-63
2022/10/26 03:00:10;;;;;;;3.60;2.30;;;;;;;12.78;86.25;99034.54;25382;1340;3069941;-79
2022/10/26 03:02:41;;;;;;;3.40;1.70;;;;;;;12.58;86.94;99042.54;25386;1327;3027104;-72
2022/10/26 03:05:14;;;;;;;8.30;2.20;;;;;;;12.46;87.83;99043.64;25421;1334;3026042;-65
2022/10/26 03:07:44;;;;;;;3.50;2.00;;;;;;;12.28;88.95;99040.38;25430;1325;3054203;-67
2022/10/26 03:10:13;;;;;;;3.50;1.80;;;;;;;12.15;89.95;99036.27;25446;1329;3026888;-69
2022/10/26 03:12:43;;;;;;;3.00;1.60;;;;;;;12.40;89.88;99039.98;25427;1324;3027002;-68
2022/10/26 03:15:13;;;;;;;3.40;1.60;;;;;;;12.79;87.45;99034.61;25451;1323;3027382;-75
2022/10/26 03:17:42;;;;;;;3.20;2.00;;;;;;;12.68;87.39;99034.07;25437;1324;3027629;-69
2022/10/26 03:20:12;;;;;;;2.90;1.70;;;;;;;12.36;89.28;99039.40;25426;1331;3026769;-70
2022/10/26 03:22:42;;;;;;;3.10;1.80;;;;;;;12.10;91.24;99040.34;25437;1331;3051739;-65
2022/10/26 03:25:15;;;;;;;2.40;1.50;;;;;;;12.12;90.68;99036.02;25441;1332;3027305;-66
2022/10/26 03:27:44;;;;;;;2.30;1.50;;;;;;;12.56;89.97;99036.55;25429;1331;3027419;-65
2022/10/26 03:30:13;;;;;;;3.20;1.70;;;;;;;12.87;87.77;99031.02;25449;1323;3026077;-69
2022/10/26 03:32:42;;;;;;;2.20;1.60;;;;;;;12.63;88.14;99033.05;25436;1326;3049497;-66
2022/10/26 03:35:11;;;;;;;2.40;1.60;;;;;;;12.72;88.22;99026.03;25441;1333;3025037;-64
2022/10/26 03:37:39;;;;;;;2.60;1.90;;;;;;;12.51;89.13;99027.07;25435;1330;3051530;-68
2022/10/26 03:40:12;;;;;;;1.70;1.20;;;;;;;12.30;90.63;99029.54;25421;1324;3027207;-69
2022/10/26 03:42:42;;;;;;;1.80;1.40;;;;;;;12.49;90.52;99025.30;25435;1330;3028076;-67
2022/10/26 03:45:11;;;;;;;1.80;1.30;;;;;;;12.85;88.72;99021.17;25446;1329;3025959;-68
2022/10/26 03:47:44;;;;;;;3.40;1.70;;;;;;;12.91;87.79;99017.38;25439;1331;3049435;-66
2022/10/26 03:50:16;;;;;;;2.80;1.50;;;;;;;12.72;88.37;99027.23;25426;1324;3068735;-70
2022/10/26 03:52:47;;;;;;;2.80;1.60;;;;;;;12.45;89.37;99021.90;25446;1332;3027509;-71
2022/10/26 03:55:16;;;;;;;2.60;1.00;;;;;;;12.40;89.85;99021.43;25446;1324;3026108;-69
2022/10/26 03:57:45;;;;;;;2.70;1.40;;;;;;;12.72;89.63;99020.54;25451;1324;3025985;-67
2022/10/26 04:00:15;;;;;;;2.40;1.50;;;;;;;13.29;86.86;99004.77;25443;1324;3027039;-69
2022/10/26 04:02:47;;;;;;;2.20;1.60;;;;;;;13.14;86.26;99004.54;25443;1333;3057625;-66
2022/10/26 04:05:15;;;;;;;2.50;1.70;;;;;;;12.93;87.20;99010.71;25394;1326;3027301;-73
2022/10/26 04:07:54;;;;;;;2.50;1.60;;;;;;;12.64;88.69;99014.16;25440;1323;3027099;-72
2022/10/26 04:10:23;;;;;;;2.80;1.40;;;;;;;12.40;90.19;99013.73;25439;1331;3056581;-73
2022/10/26 04:12:52;;;;;;;2.00;1.30;;;;;;;12.83;89.64;99015.89;25438;1324;3026184;-71
2022/10/26 04:15:22;;;;;;;3.20;1.50;;;;;;;13.08;88.18;99006.23;25434;1324;3025801;-69
2022/10/26 04:17:58;;;;;;;1.50;1.20;;;;;;;13.22;87.10;98999.80;25413;1324;3026836;-64
2022/10/26 04:20:28;;;;;;;1.60;1.30;;;;;;;12.94;87.66;99004.66;25431;1324;3052848;-67
2022/10/26 04:23:05;;;;;;;1.60;1.20;;;;;;;12.66;89.07;99003.09;25437;1330;3027565;-62
2022/10/26 04:25:34;;;;;;;1.30;1.00;;;;;;;12.47;90.28;98999.50;25423;1331;3052006;-65
2022/10/26 04:28:04;;;;;;;1.90;1.30;;;;;;;12.63;90.77;99005.63;25437;1325;3027771;-66
2022/10/26 04:30:34;;;;;;;1.50;1.10;;;;;;;13.24;88.10;98995.29;25432;1329;3054421;-68
2022/10/26 04:33:03;;;;;;;2.40;1.40;;;;;;;13.34;86.97;98986.59;25432;1333;3027071;-68
2022/10/26 04:35:32;;;;;;;2.20;1.30;;;;;;;13.09;87.17;98991.35;25430;1330;3053180;-68
2022/10/26 04:38:03;;;;;;;3.40;1.50;;;;;;;12.82;89.11;98991.34;25448;1324;3027469;-70
2022/10/26 04:40:33;;;;;;;1.10;0.80;;;;;;;12.62;90.53;98993.44;25433;1324;3027377;-70
2022/10/26 04:43:03;;;;;;;1.00;0.90;;;;;;;12.97;89.68;98989.66;25445;1330;3027644;-65
2022/10/26 04:45:32;;;;;;;2.00;1.10;;;;;;;13.21;87.93;98985.73;25434;1333;3025881;-67
2022/10/26 04:48:02;;;;;;;3.10;1.30;;;;;;;13.26;88.18;98980.17;25443;1323;3051455;-67
2022/10/26 04:50:35;;;;;;;1.20;0.80;;;;;;;13.21;87.64;98981.09;25431;1333;3052109;-63
2022/10/26 04:53:08;;;;;;;1.30;1.00;;;;;;;12.80;89.89;98993.95;25443;1330;3027940;-72
2022/10/26 04:55:38;;;;;;;2.00;1.00;;;;;;;12.71;90.52;98995.34;25423;1331;3069220;-71
2022/10/26 04:58:07;;;;;;;1.50;0.80;;;;;;;12.88;91.18;98992.80;25443;1327;3026190;-66
2022/10/26 05:00:36;;;;;;;1.50;1.10;;;;;;;13.51;88.07;98985.79;25449;1330;3049335;-66
2022/10/26 05:03:05;;;;;;;4.90;1.40;;;;;;;13.39;87.41;98986.25;25430;1331;3027112;-69
2022/10/26 05:05:36;;;;;;;1.90;1.10;;;;;;;13.03;89.18;98991.64;25444;1327;3053404;-67
2022/10/26 05:08:05;;;;;;;3.10;1.30;;;;;;;12.91;89.86;98994.86;25429;1322;3026818;-69
2022/10/26 05:10:34;;;;;;;2.40;0.90;;;;;;;12.76;91.26;98991.85;25443;1329;3027691;-69
2022/10/26 05:13:03;;;;;;;4.00;1.20;;;;;;;12.97;90.68;98997.21;25446;1340;3051800;-65
2022/10/26 05:15:33;;;;;;;2.80;1.40;;;;;;;13.46;88.29;98983.69;25462;1330;3028079;-61
2022/10/26 05:18:04;;;;;;;2.80;1.40;;;;;;;13.40;87.76;98980.71;25462;1330;3028380;-60
2022/10/26 05:20:34;;;;;;;3.00;1.50;;;;;;;13.21;88.71;98984.81;25480;1324;3025968;-65
2022/10/26 05:23:08;;;;;;;5.40;2.00;;;;;;;13.13;89.48;98984.42;25479;1324;3050237;-68
2022/10/26 05:25:38;;;;;;;3.10;1.50;;;;;;;12.89;90.71;98989.08;25417;1326;3070281;-75
2022/10/26 05:28:10;;;;;;;2.50;1.20;;;;;;;13.30;89.70;98986.59;25470;1323;3027174;-62
2022/10/26 05:30:40;;;;;;;1.60;1.10;;;;;;;13.69;87.66;98985.40;25447;1324;3049039;-69
2022/10/26 05:33:10;;;;;;;2.70;1.20;;;;;;;13.71;86.52;98976.63;25449;1330;3026621;-69
2022/10/26 05:35:40;;;;;;;4.20;1.20;;;;;;;13.60;86.95;98981.71;25459;1330;3026256;-71
2022/10/26 05:38:10;;;;;;;2.00;1.20;;;;;;;13.39;88.25;98981.86;25466;1325;3026543;-66
2022/10/26 05:40:49;;;;;;;2.10;1.10;;;;;;;13.13;89.95;98990.86;25453;1324;3068055;-63
2022/10/26 05:43:19;;;;;;;1.20;0.90;;;;;;;13.38;89.50;98991.37;25464;1328;3049524;-68
2022/10/26 05:45:49;;;;;;;1.70;0.90;;;;;;;13.69;87.93;98986.46;25468;1331;3027008;-69
2022/10/26 05:48:19;;;;;;;1.90;1.20;;;;;;;13.59;87.99;98986.05;25421;1336;3026531;-69
2022/10/26 05:50:47;;;;;;;2.30;1.30;;;;;;;13.47;88.85;98990.49;25434;1333;3026420;-70
2022/10/26 05:53:16;;;;;;;1.80;1.20;;;;;;;13.36;89.45;98994.35;25422;1329;3027159;-72
2022/10/26 05:55:46;;;;;;;1.40;0.80;;;;;;;13.29;90.27;98996.84;25436;1332;3051308;-74
2022/10/26 05:58:19;;;;;;;1.90;1.10;;;;;;;13.49;89.98;98989.62;25433;1332;3027210;-71
2022/10/26 06:01:07;;;;;;;3.90;1.50;;;;;;;14.00;87.76;98980.41;25416;1333;3027194;-64
2022/10/26 06:04:06;;;;;;;4.60;2.00;;;;;;;13.98;86.73;98979.73;25437;1337;3052334;-71
2022/10/26 06:06:44;;;;;;;4.60;2.50;;;;;;;13.68;88.61;98981.76;25416;1332;3048280;-63
2022/10/26 06:09:13;;;;;;;5.00;2.60;;;;;;;13.46;89.82;98988.30;25439;1336;3025451;-72
2022/10/26 06:11:43;;;;;;;6.20;2.70;;;;;;;13.26;91.10;98992.33;25455;1332;3026796;-66
2022/10/26 06:14:13;;;;;;;5.90;2.50;;;;;;;13.69;90.35;98984.89;25430;1331;3027458;-72
2022/10/26 06:16:56;;;;;;;6.60;3.30;;;;;;;14.09;87.98;98985.14;25437;1331;3026944;-66
2022/10/26 06:19:47;;;;;;;6.60;3.40;;;;;;;13.86;88.28;98983.84;25447;1329;3054222;-69
2022/10/26 06:22:32;;;;;;;9.00;3.60;;;;;;;13.84;88.84;98982.20;25411;1329;3053507;-65
2022/10/26 06:25:25;;;;;;;10.60;4.20;;;;;;;13.71;89.30;98984.30;25443;1331;3053226;-70
2022/10/26 06:28:19;;;;;;;5.20;2.60;;;;;;;13.48;90.74;98995.21;25436;1330;3049359;-69
2022/10/26 06:30:48;;;;;;;7.60;1.80;;;;;;;13.94;89.26;98985.11;25353;1336;3068695;-64
2022/10/26 06:33:20;;;;;;;7.10;2.40;;;;;;;14.16;87.86;98984.79;25437;1323;3027386;-69
2022/10/26 06:35:56;;;;;;;6.30;2.00;;;;;;;14.18;87.87;98985.79;25414;1324;3026338;-70
2022/10/26 06:38:26;;;;;;;3.30;1.30;;;;;;;13.98;88.50;98992.07;25416;1324;3054364;-67
2022/10/26 06:40:55;;;;;;;4.60;1.80;;;;;;;13.82;89.35;98991.95;25418;1332;3026156;-66
2022/10/26 06:43:25;;;;;;;2.60;1.10;;;;;;;13.64;90.89;98998.13;25423;1324;3026769;-72
2022/10/26 06:46:16;;;;;;;2.50;1.00;;;;;;;14.05;90.42;98995.11;25444;1331;3052254;-72
2022/10/26 06:48:52;;;;;;;1.10;0.90;;;;;;;14.73;86.13;98988.23;25433;1336;3052725;-68
2022/10/26 06:51:21;;;;;;;1.00;0.80;;;;;;;14.49;86.18;98992.22;25357;1331;3052987;-68
2022/10/26 06:53:59;;;;;;;1.50;1.20;;;;;;;14.21;87.56;98995.75;25427;1330;3026674;-70
2022/10/26 06:56:29;;;;;;;1.90;1.20;;;;;;;14.05;88.75;98994.48;25450;1331;3052642;-70
2022/10/26 06:59:03;;;;;;;1.50;0.80;;;;;;;14.01;88.99;99000.05;25349;1336;3026466;-62
2022/10/26 07:01:32;;;;;;;2.00;1.20;;;;;;;14.60;87.13;98993.78;25397;1330;3052635;-67
2022/10/26 07:04:00;;;;;;;4.00;1.60;;;;;;;14.95;85.27;98988.38;25450;1329;3025825;-67
2022/10/26 07:09:31;;;;;;;3.70;2.20;;;;;;;14.89;84.76;98995.76;30791;1319;3013051;-64
2022/10/26 07:12:00;;;;;;;4.80;3.10;;;;;;;14.40;86.68;99002.83;24483;1327;3025729;-61
2022/10/26 07:14:31;;;;;;;4.50;2.20;;;;;;;14.31;88.03;98998.50;24525;1337;3026692;-70
2022/10/26 07:17:00;;;;;;;4.20;2.80;;;;;;;14.72;86.69;98998.61;24545;1327;3025728;-68
2022/10/26 07:19:31;;;;;;;6.70;3.20;;;;;;;15.22;84.96;98993.08;24501;1334;3028382;-72
2022/10/26 07:22:01;;;;;;;6.00;4.00;;;;;;;15.29;83.71;98997.03;23785;1342;4308972;-65
2022/10/26 07:24:30;;;;;;;6.30;3.70;;;;;;;15.04;84.13;98993.40;24489;1334;3027611;-68
2022/10/26 07:26:59;;;;;;;7.30;4.60;;;;;;;14.93;84.46;98995.70;24498;1331;3052743;-65
2022/10/26 07:29:29;;;;;;;4.60;3.00;;;;;;;14.84;84.70;98999.33;24509;1339;3026885;-67
2022/10/26 07:31:58;;;;;;;7.60;4.00;;;;;;;15.15;84.29;98998.37;24494;1323;3025830;-69
2022/10/26 07:34:34;;;;;;;10.00;4.50;;;;;;;15.35;83.42;99000.77;24566;1324;3053451;-72
2022/10/26 07:37:03;;;;;;;9.60;5.50;;;;;;;15.23;83.43;98997.39;24645;1324;3027264;-67
2022/10/26 07:39:32;;;;;;;9.90;6.00;;;;;;;15.01;84.71;99001.89;24489;1333;3057854;-69
2022/10/26 07:42:01;;;;;;;9.00;5.60;;;;;;;14.86;84.49;98998.10;24517;1333;3028255;-68
2022/10/26 07:44:31;;;;;;;6.30;3.80;;;;;;;14.75;85.09;99001.01;24502;1334;3050229;-64
2022/10/26 07:47:00;;;;;;;11.60;5.50;;;;;;;15.26;84.51;98993.22;24486;1324;3029316;-72
2022/10/26 07:49:28;;;;;;;13.10;6.70;;;;;;;15.68;82.66;98994.13;24562;1323;3068747;-69
2022/10/26 07:51:57;;;;;;;10.60;6.00;;;;;;;15.65;81.71;98993.31;24479;1334;3029572;-64
2022/10/26 07:54:26;;;;;;;14.00;7.90;;;;;;;15.38;81.80;99000.98;24538;1340;3050260;-67
2022/10/26 07:56:55;;;;;;;12.30;7.80;;;;;;;15.07;82.85;99000.37;24471;1323;3028927;-69
2022/10/26 07:59:25;;;;;;;11.80;5.90;;;;;;;15.02;82.92;99000.10;24539;1325;3053814;-70
2022/10/26 08:01:54;;;;;;;14.50;6.70;;;;;;;15.39;82.27;98999.83;24517;1323;3029542;-68
2022/10/26 08:04:23;;;;;;;11.20;6.70;;;;;;;15.67;81.13;98997.46;24491;1333;3051491;-66
2022/10/26 08:06:54;;;;;;;14.40;8.90;;;;;;;15.53;81.26;99002.13;24478;1330;3029496;-67
2022/10/26 08:09:23;;;;;;;21.50;10.20;;;;;;;15.19;81.81;99010.05;24538;1333;3029267;-64
2022/10/26 08:11:52;;;;;;;20.40;11.60;;;;;;;15.12;81.96;99009.95;24453;1340;3051108;-69
2022/10/26 08:14:20;;;;;;;15.10;7.80;;;;;;;15.06;82.48;99015.06;24508;1333;3029548;-66
2022/10/26 08:16:51;;;;;;;19.10;9.80;;;;;;;15.38;81.38;99010.75;24459;1334;3055959;-69
2022/10/26 08:19:20;;;;;;;19.20;9.90;;;;;;;15.52;81.28;99013.61;24452;1324;3027921;-69
2022/10/26 08:21:49;;;;;;;17.50;9.50;;;;;;;15.39;80.54;99014.14;24452;1337;3025702;-65
2022/10/26 08:24:18;;;;;;;23.90;11.60;;;;;;;14.99;82.04;99019.05;24531;1324;3027682;-66
2022/10/26 08:26:49;;;;;;;19.10;9.80;;;;;;;14.66;84.00;99014.22;24472;1333;3050178;-69
2022/10/26 08:29:18;;;;;;;11.10;6.10;;;;;;;14.63;84.12;99013.77;24482;1333;3028083;-65
2022/10/26 08:31:47;;;;;;;18.60;8.10;;;;;;;15.16;83.23;99014.68;24481;1334;3053571;-68
2022/10/26 08:34:16;;;;;;;15.60;8.20;;;;;;;15.59;80.35;99015.20;24510;1333;3026605;-71
2022/10/26 08:36:45;;;;;;;18.40;10.30;;;;;;;15.44;81.02;99016.92;24521;1326;3029013;-69
2022/10/26 08:39:16;;;;;;;20.30;9.90;;;;;;;15.20;81.90;99019.86;24551;1338;3053290;-65
2022/10/26 08:43:09;;;;;;;19.10;10.50;;;;;;;15.10;81.53;99025.11;31104;1337;3018229;-61
2022/10/26 08:45:40;;;;;;;15.60;7.10;;;;;;;14.90;82.42;99026.34;24477;1341;3070091;-65
2022/10/26 08:48:13;;;;;;;16.20;7.80;;;;;;;15.45;82.04;99029.36;24448;1344;3028575;-66
2022/10/26 08:50:51;;;;;;;12.80;7.80;;;;;;;15.95;79.03;99027.77;24394;1330;3027003;-68
2022/10/26 08:53:27;;;;;;;19.10;8.90;;;;;;;15.75;79.40;99022.16;24423;1340;3052733;-73
2022/10/26 08:55:59;;;;;;;24.20;10.70;;;;;;;15.59;79.83;99023.15;23825;1337;4016842;-67
2022/10/26 08:58:40;;;;;;;18.30;9.80;;;;;;;15.29;80.48;99030.25;24459;1335;3057735;-65
2022/10/26 09:01:14;;;;;;;14.90;7.20;;;;;;;14.86;82.79;99036.89;24404;1337;3056182;-67
2022/10/26 09:03:43;;;;;;;15.80;9.10;;;;;;;15.22;82.34;99035.08;24446;1313;3025916;-67
2022/10/26 09:06:19;;;;;;;21.40;10.20;;;;;;;15.57;80.56;99030.77;24438;1337;3056515;-67
2022/10/26 09:09:14;;;;;;;20.60;10.70;;;;;;;15.26;80.74;99032.95;24444;1344;3053485;-70
2022/10/26 09:12:01;;;;;;;19.90;10.50;;;;;;;15.08;81.96;99036.62;24478;1337;3054169;-67
2022/10/26 09:14:43;;;;;;;18.90;9.70;;;;;;;14.94;82.30;99036.04;24396;1330;3051829;-68
2022/10/26 09:17:27;;;;;;;11.30;6.40;;;;;;;14.97;82.04;99038.11;24458;1334;3054153;-66
2022/10/26 09:20:35;;;;;;;17.90;8.60;;;;;;;15.66;80.41;99037.52;24496;1344;3049464;-68
2022/10/26 09:23:06;;;;;;;14.90;8.30;;;;;;;15.80;78.94;99035.83;24367;1340;3070183;-64
2022/10/26 09:25:39;;;;;;;18.10;8.90;;;;;;;15.72;79.09;99036.54;24432;1331;3027601;-70
2022/10/26 09:28:16;;;;;;;16.70;8.90;;;;;;;15.34;80.10;99040.90;24462;1334;3027292;-69
2022/10/26 09:30:45;;;;;;;21.20;10.90;;;;;;;14.96;81.93;99042.70;24531;1333;3053774;-66
2022/10/26 09:33:16;;;;;;;13.90;6.50;;;;;;;14.65;83.65;99049.36;24453;1332;3026329;-69
2022/10/26 09:35:51;;;;;;;12.90;7.20;;;;;;;14.92;83.10;99045.39;24521;1332;3056686;-65
2022/10/26 09:38:46;;;;;;;15.70;9.30;;;;;;;15.28;81.67;99049.17;24539;1327;3053381;-69
2022/10/26 09:41:43;;;;;;;16.40;9.20;;;;;;;15.12;81.86;99050.35;24520;1333;3053077;-65
2022/10/26 09:44:33;;;;;;;17.20;8.20;;;;;;;14.83;82.94;99055.28;24464;1327;3051408;-73
2022/10/26 09:47:21;;;;;;;17.90;8.30;;;;;;;14.68;83.46;99053.75;24491;1333;3054268;-70
2022/10/26 09:50:04;;;;;;;12.90;6.60;;;;;;;14.28;86.08;99060.89;24467;1327;3050654;-68
2022/10/26 09:52:34;;;;;;;15.20;8.20;;;;;;;14.84;84.58;99053.09;24507;1334;3068767;-66
2022/10/26 09:55:04;;;;;;;19.00;8.70;;;;;;;15.12;83.17;99052.45;24441;1335;3027338;-68
2022/10/26 09:57:34;;;;;;;16.30;9.50;;;;;;;15.09;82.58;99052.58;24455;1334;3030108;-61
2022/10/26 10:00:04;;;;;;;20.60;9.30;;;;;;;14.71;83.72;99052.05;24449;1325;3029174;-65
2022/10/26 10:02:44;;;;;;;15.90;8.80;;;;;;;14.41;84.76;99057.02;24442;1337;3051538;-66
2022/10/26 10:05:20;;;;;;;11.00;4.90;;;;;;;14.26;86.29;99060.02;24427;1341;3056265;-68
2022/10/26 10:07:49;;;;;;;12.20;5.60;;;;;;;14.89;84.16;99052.87;24447;1334;3054352;-67
2022/10/26 10:10:20;;;;;;;13.70;6.20;;;;;;;15.41;81.66;99054.03;24446;1327;3029396;-69
2022/10/26 10:12:51;;;;;;;9.80;6.20;;;;;;;15.34;80.92;99055.52;24460;1333;3057698;-60
2022/10/26 10:15:23;;;;;;;9.60;5.10;;;;;;;15.13;81.25;99054.38;24449;1336;3026448;-67
2022/10/26 10:17:56;;;;;;;7.90;4.90;;;;;;;14.85;82.24;99057.96;24441;1340;3029071;-69
2022/10/26 10:20:30;;;;;;;9.50;5.50;;;;;;;14.57;83.37;99056.20;24472;1327;3027924;-65
2022/10/26 10:23:03;;;;;;;6.00;3.60;;;;;;;14.34;84.86;99061.09;24392;1344;3055760;-65
2022/10/26 10:25:35;;;;;;;4.80;2.90;;;;;;;14.59;84.80;99064.48;24411;1342;3029212;-68
2022/10/26 10:28:21;;;;;;;6.80;4.20;;;;;;;15.02;82.91;99058.25;24454;1343;3026871;-65
2022/10/26 10:30:58;;;;;;;6.20;4.20;;;;;;;14.94;82.21;99066.23;24432;1337;3051236;-66
2022/10/26 10:33:39;;;;;;;7.60;3.50;;;;;;;14.62;83.73;99070.27;24496;1336;3057639;-68
2022/10/26 10:36:10;;;;;;;6.10;4.10;;;;;;;14.30;84.86;99069.69;24485;1319;3052494;-69
2022/10/26 10:38:44;;;;;;;3.30;2.10;;;;;;;14.17;85.70;99070.77;24411;1333;3027226;-66
2022/10/26 10:41:28;;;;;;;3.60;2.50;;;;;;;14.70;84.25;99062.39;24434;1343;3026216;-71
2022/10/26 10:44:06;;;;;;;3.70;2.70;;;;;;;15.00;82.28;99063.38;24460;1337;3053714;-74
2022/10/26 10:46:36;;;;;;;3.20;2.50;;;;;;;14.84;82.27;99067.73;24490;1342;3051429;-69
2022/10/26 10:49:15;;;;;;;6.00;3.30;;;;;;;14.60;83.05;99070.44;24448;1337;3026045;-73
2022/10/26 10:51:44;;;;;;;4.20;3.00;;;;;;;14.44;84.27;99069.29;24437;1337;3051651;-67
2022/10/26 10:54:31;;;;;;;2.80;1.90;;;;;;;14.32;84.72;99067.39;24456;1327;3025882;-72
2022/10/26 10:57:19;;;;;;;4.00;2.40;;;;;;;14.82;83.55;99067.70;24404;1336;3070150;-67
2022/10/26 11:00:01;;;;;;;4.40;3.10;;;;;;;15.12;81.41;99064.98;24452;1332;3050930;-67
2022/10/26 11:02:52;;;;;;;5.30;3.10;;;;;;;14.99;81.59;99065.91;24438;1337;3056793;-68
2022/10/26 11:06:00;;;;;;;5.30;3.90;;;;;;;14.62;82.81;99073.08;24419;1326;3052516;-69
2022/10/26 11:08:31;;;;;;;8.70;5.30;;;;;;;14.25;84.11;99072.56;24463;1329;3052944;-69
2022/10/26 11:11:03;;;;;;;6.50;3.70;;;;;;;14.12;85.23;99076.45;24413;1336;3027089;-69
2022/10/26 11:13:36;;;;;;;6.60;4.50;;;;;;;14.44;84.35;99075.08;24566;1337;3027562;-70
2022/10/26 11:16:10;;;;;;;7.10;4.50;;;;;;;14.72;83.27;99069.94;24563;1340;3026526;-67
2022/10/26 11:18:49;;;;;;;10.60;5.20;;;;;;;14.76;82.82;99075.69;24574;1337;3068795;-68
2022/10/26 11:21:29;;;;;;;9.50;6.00;;;;;;;14.62;83.32;99074.81;24447;1343;3051815;-67
2022/10/26 11:24:12;;;;;;;11.10;7.20;;;;;;;14.20;84.75;99076.52;24422;1339;3060154;-65
2022/10/26 11:26:54;;;;;;;8.10;4.50;;;;;;;14.02;86.08;99084.98;24490;1327;3054277;-67
2022/10/26 11:29:55;;;;;;;13.70;7.00;;;;;;;14.46;84.28;99080.08;24470;1342;3054217;-71
2022/10/26 11:32:27;;;;;;;11.80;7.20;;;;;;;14.58;83.41;99084.48;24518;1326;3052457;-67
2022/10/26 11:35:25;;;;;;;16.50;7.80;;;;;;;14.44;83.48;99086.69;24399;1333;3028611;-70
2022/10/26 11:38:01;;;;;;;12.90;7.80;;;;;;;14.09;84.71;99094.70;24394;1334;3049312;-65
2022/10/26 11:40:55;;;;;;;8.80;5.00;;;;;;;13.86;86.04;99102.17;24483;1336;3071112;-65
2022/10/26 11:43:39;;;;;;;9.70;6.10;;;;;;;14.52;84.08;99094.02;24539;1334;3051290;-66
2022/10/26 11:46:27;;;;;;;11.30;7.50;;;;;;;14.73;82.14;99094.73;24403;1326;3057666;-69
2022/10/26 11:49:03;;;;;;;11.80;7.60;;;;;;;14.56;82.12;99098.21;24523;1337;3054324;-66
2022/10/26 11:51:37;;;;;;;15.00;9.10;;;;;;;14.31;83.18;99099.17;24409;1334;3054630;-64